sensor_id;sensor_type;location;lat;lon;timestamp;temperature;humidity
53268;DHT22;39156;51.176;6.738;2023-07-31T00:00:25;16.70;84.40
53268;DHT22;39156;51.176;6.738;2023-07-31T00:02:52;16.80;84.30
53268;DHT22;39156;51.176;6.738;2023-07-31T00:05:18;16.80;84.50
53268;DHT22;39156;51.176;6.738;2023-07-31T00:07:43;16.80;84.30
53268;DHT22;39156;51.176;6.738;2023-07-31T00:10:09;16.70;84.40
53268;DHT22;39156;51.176;6.738;2023-07-31T00:12:35;16.80;84.40
53268;DHT22;39156;51.176;6.738;2023-07-31T00:15:01;16.70;84.30
53268;DHT22;39156;51.176;6.738;2023-07-31T00:17:27;16.70;84.40
53268;DHT22;39156;51.176;6.738;2023-07-31T00:19:53;16.80;84.50
53268;DHT22;39156;51.176;6.738;2023-07-31T00:22:19;16.80;84.50
53268;DHT22;39156;51.176;6.738;2023-07-31T00:24:44;16.70;84.50
53268;DHT22;39156;51.176;6.738;2023-07-31T00:27:10;16.70;84.30
53268;DHT22;39156;51.176;6.738;2023-07-31T00:29:36;16.80;84.50
53268;DHT22;39156;51.176;6.738;2023-07-31T00:32:02;16.70;84.40
53268;DHT22;39156;51.176;6.738;2023-07-31T00:34:27;16.70;84.60
53268;DHT22;39156;51.176;6.738;2023-07-31T00:36:54;16.70;84.40
53268;DHT22;39156;51.176;6.738;2023-07-31T00:39:19;16.70;84.30
53268;DHT22;39156;51.176;6.738;2023-07-31T00:41:45;16.70;84.20
53268;DHT22;39156;51.176;6.738;2023-07-31T00:44:11;16.80;84.30
53268;DHT22;39156;51.176;6.738;2023-07-31T00:46:36;16.70;84.10
53268;DHT22;39156;51.176;6.738;2023-07-31T00:49:02;16.80;84.00
53268;DHT22;39156;51.176;6.738;2023-07-31T00:51:28;16.80;83.90
53268;DHT22;39156;51.176;6.738;2023-07-31T00:53:55;16.70;83.90
53268;DHT22;39156;51.176;6.738;2023-07-31T00:56:21;16.80;83.70
53268;DHT22;39156;51.176;6.738;2023-07-31T00:58:47;16.80;83.70
53268;DHT22;39156;51.176;6.738;2023-07-31T01:01:13;16.80;83.80
53268;DHT22;39156;51.176;6.738;2023-07-31T01:03:39;16.80;83.70
53268;DHT22;39156;51.176;6.738;2023-07-31T01:06:31;16.80;83.70
53268;DHT22;39156;51.176;6.738;2023-07-31T01:12:03;16.80;83.60
53268;DHT22;39156;51.176;6.738;2023-07-31T01:14:29;16.80;83.50
53268;DHT22;39156;51.176;6.738;2023-07-31T01:16:55;16.80;83.50
53268;DHT22;39156;51.176;6.738;2023-07-31T01:19:23;16.80;83.40
53268;DHT22;39156;51.176;6.738;2023-07-31T01:22:22;16.80;83.40
53268;DHT22;39156;51.176;6.738;2023-07-31T01:25:05;16.80;83.70
53268;DHT22;39156;51.176;6.738;2023-07-31T01:27:42;16.90;83.30
53268;DHT22;39156;51.176;6.738;2023-07-31T01:30:17;16.80;82.80
53268;DHT22;39156;51.176;6.738;2023-07-31T01:32:48;16.80;83.00
53268;DHT22;39156;51.176;6.738;2023-07-31T01:35:15;16.80;82.70
53268;DHT22;39156;51.176;6.738;2023-07-31T01:37:40;16.90;82.70
53268;DHT22;39156;51.176;6.738;2023-07-31T01:40:07;16.80;82.50
53268;DHT22;39156;51.176;6.738;2023-07-31T01:42:33;16.80;82.60
53268;DHT22;39156;51.176;6.738;2023-07-31T01:44:58;16.80;82.30
53268;DHT22;39156;51.176;6.738;2023-07-31T01:47:24;16.80;82.10
53268;DHT22;39156;51.176;6.738;2023-07-31T01:49:50;16.80;82.00
53268;DHT22;39156;51.176;6.738;2023-07-31T01:52:15;16.80;82.10
53268;DHT22;39156;51.176;6.738;2023-07-31T01:54:41;16.80;81.90
53268;DHT22;39156;51.176;6.738;2023-07-31T01:57:07;16.80;82.20
53268;DHT22;39156;51.176;6.738;2023-07-31T01:59:32;16.80;82.10
53268;DHT22;39156;51.176;6.738;2023-07-31T02:01:58;16.80;82.20
53268;DHT22;39156;51.176;6.738;2023-07-31T02:04:24;16.80;82.20
53268;DHT22;39156;51.176;6.738;2023-07-31T02:06:49;16.80;82.10
53268;DHT22;39156;51.176;6.738;2023-07-31T02:09:15;16.80;82.10
53268;DHT22;39156;51.176;6.738;2023-07-31T02:11:41;16.80;82.00
53268;DHT22;39156;51.176;6.738;2023-07-31T02:14:06;16.80;82.10
53268;DHT22;39156;51.176;6.738;2023-07-31T02:16:32;16.80;82.10
53268;DHT22;39156;51.176;6.738;2023-07-31T02:18:58;16.80;82.10
53268;DHT22;39156;51.176;6.738;2023-07-31T02:21:23;16.80;82.10
53268;DHT22;39156;51.176;6.738;2023-07-31T02:23:49;16.80;82.20
53268;DHT22;39156;51.176;6.738;2023-07-31T02:26:15;16.80;82.20
53268;DHT22;39156;51.176;6.738;2023-07-31T02:28:40;16.80;82.30
53268;DHT22;39156;51.176;6.738;2023-07-31T02:31:08;16.80;82.30
53268;DHT22;39156;51.176;6.738;2023-07-31T02:33:34;16.80;82.40
53268;DHT22;39156;51.176;6.738;2023-07-31T02:35:59;16.80;82.40
53268;DHT22;39156;51.176;6.738;2023-07-31T02:40:58;16.90;82.50
53268;DHT22;39156;51.176;6.738;2023-07-31T02:43:24;16.90;82.40
53268;DHT22;39156;51.176;6.738;2023-07-31T02:45:52;16.80;82.40
53268;DHT22;39156;51.176;6.738;2023-07-31T02:48:19;16.90;82.60
53268;DHT22;39156;51.176;6.738;2023-07-31T02:50:45;16.90;82.70
53268;DHT22;39156;51.176;6.738;2023-07-31T02:53:12;16.90;82.60
53268;DHT22;39156;51.176;6.738;2023-07-31T02:55:38;16.90;82.60
53268;DHT22;39156;51.176;6.738;2023-07-31T02:58:04;16.90;82.50
53268;DHT22;39156;51.176;6.738;2023-07-31T03:00:29;17.00;82.70
53268;DHT22;39156;51.176;6.738;2023-07-31T03:02:55;17.00;82.70
53268;DHT22;39156;51.176;6.738;2023-07-31T03:05:21;16.90;82.60
53268;DHT22;39156;51.176;6.738;2023-07-31T03:07:47;17.00;82.70
53268;DHT22;39156;51.176;6.738;2023-07-31T03:10:12;16.90;82.60
53268;DHT22;39156;51.176;6.738;2023-07-31T03:12:38;16.90;82.50
53268;DHT22;39156;51.176;6.738;2023-07-31T03:15:04;17.00;82.60
53268;DHT22;39156;51.176;6.738;2023-07-31T03:17:30;17.00;82.60
53268;DHT22;39156;51.176;6.738;2023-07-31T03:19:55;17.00;82.60
53268;DHT22;39156;51.176;6.738;2023-07-31T03:22:21;16.90;82.50
53268;DHT22;39156;51.176;6.738;2023-07-31T03:24:47;17.00;82.70
53268;DHT22;39156;51.176;6.738;2023-07-31T03:27:12;16.90;82.50
53268;DHT22;39156;51.176;6.738;2023-07-31T03:29:38;17.00;82.60
53268;DHT22;39156;51.176;6.738;2023-07-31T03:32:04;17.00;82.50
53268;DHT22;39156;51.176;6.738;2023-07-31T03:34:30;16.90;82.50
53268;DHT22;39156;51.176;6.738;2023-07-31T03:36:57;17.00;82.50
53268;DHT22;39156;51.176;6.738;2023-07-31T03:39:23;17.10;82.60
53268;DHT22;39156;51.176;6.738;2023-07-31T03:41:49;17.00;82.50
53268;DHT22;39156;51.176;6.738;2023-07-31T03:44:15;17.00;82.50
53268;DHT22;39156;51.176;6.738;2023-07-31T03:46:41;17.00;82.60
53268;DHT22;39156;51.176;6.738;2023-07-31T03:49:06;17.00;82.50
53268;DHT22;39156;51.176;6.738;2023-07-31T03:51:32;17.00;82.50
53268;DHT22;39156;51.176;6.738;2023-07-31T03:53:58;17.10;82.60
53268;DHT22;39156;51.176;6.738;2023-07-31T03:56:24;17.00;82.60
53268;DHT22;39156;51.176;6.738;2023-07-31T03:58:49;17.00;82.60
53268;DHT22;39156;51.176;6.738;2023-07-31T04:01:15;17.10;82.70
53268;DHT22;39156;51.176;6.738;2023-07-31T04:03:41;17.10;82.70
53268;DHT22;39156;51.176;6.738;2023-07-31T04:06:06;17.10;82.80
53268;DHT22;39156;51.176;6.738;2023-07-31T04:08:33;17.00;82.70
53268;DHT22;39156;51.176;6.738;2023-07-31T04:10:58;17.10;82.80
53268;DHT22;39156;51.176;6.738;2023-07-31T04:13:24;17.10;82.80
53268;DHT22;39156;51.176;6.738;2023-07-31T04:15:52;17.10;82.90
53268;DHT22;39156;51.176;6.738;2023-07-31T04:18:19;17.10;82.80
53268;DHT22;39156;51.176;6.738;2023-07-31T04:20:45;17.10;82.90
53268;DHT22;39156;51.176;6.738;2023-07-31T04:23:11;17.10;83.00
53268;DHT22;39156;51.176;6.738;2023-07-31T04:25:37;17.10;83.00
53268;DHT22;39156;51.176;6.738;2023-07-31T04:28:03;17.20;83.10
53268;DHT22;39156;51.176;6.738;2023-07-31T04:30:28;17.10;83.00
53268;DHT22;39156;51.176;6.738;2023-07-31T04:32:54;17.10;83.10
53268;DHT22;39156;51.176;6.738;2023-07-31T04:35:20;17.10;83.00
53268;DHT22;39156;51.176;6.738;2023-07-31T04:37:45;17.20;83.10
53268;DHT22;39156;51.176;6.738;2023-07-31T04:40:14;17.20;83.00
53268;DHT22;39156;51.176;6.738;2023-07-31T04:42:40;17.20;82.90
53268;DHT22;39156;51.176;6.738;2023-07-31T04:45:08;17.20;82.90
53268;DHT22;39156;51.176;6.738;2023-07-31T04:47:34;17.20;82.90
53268;DHT22;39156;51.176;6.738;2023-07-31T04:50:00;17.20;82.90
53268;DHT22;39156;51.176;6.738;2023-07-31T04:52:25;17.20;83.00
53268;DHT22;39156;51.176;6.738;2023-07-31T04:54:51;17.30;83.00
53268;DHT22;39156;51.176;6.738;2023-07-31T04:57:17;17.30;83.00
53268;DHT22;39156;51.176;6.738;2023-07-31T04:59:42;17.30;82.90
53268;DHT22;39156;51.176;6.738;2023-07-31T05:02:09;17.40;83.00
53268;DHT22;39156;51.176;6.738;2023-07-31T05:04:34;17.40;82.90
53268;DHT22;39156;51.176;6.738;2023-07-31T05:07:00;17.50;82.80
53268;DHT22;39156;51.176;6.738;2023-07-31T05:09:26;17.60;82.60
53268;DHT22;39156;51.176;6.738;2023-07-31T05:11:51;17.70;82.70
53268;DHT22;39156;51.176;6.738;2023-07-31T05:14:17;17.70;82.40
53268;DHT22;39156;51.176;6.738;2023-07-31T05:16:43;17.80;82.10
53268;DHT22;39156;51.176;6.738;2023-07-31T05:19:08;17.90;81.90
53268;DHT22;39156;51.176;6.738;2023-07-31T05:21:34;17.80;81.60
53268;DHT22;39156;51.176;6.738;2023-07-31T05:24:00;18.10;81.60
53268;DHT22;39156;51.176;6.738;2023-07-31T05:26:25;18.00;81.30
53268;DHT22;39156;51.176;6.738;2023-07-31T05:28:51;18.00;81.30
53268;DHT22;39156;51.176;6.738;2023-07-31T05:31:16;17.90;81.20
53268;DHT22;39156;51.176;6.738;2023-07-31T05:33:42;18.00;81.00
53268;DHT22;39156;51.176;6.738;2023-07-31T05:36:08;18.00;81.10
53268;DHT22;39156;51.176;6.738;2023-07-31T05:38:34;18.10;81.00
53268;DHT22;39156;51.176;6.738;2023-07-31T05:41:00;18.00;80.70
53268;DHT22;39156;51.176;6.738;2023-07-31T05:43:25;18.10;80.60
53268;DHT22;39156;51.176;6.738;2023-07-31T05:45:51;18.10;80.60
53268;DHT22;39156;51.176;6.738;2023-07-31T05:48:17;18.00;80.60
53268;DHT22;39156;51.176;6.738;2023-07-31T05:50:43;18.10;80.40
53268;DHT22;39156;51.176;6.738;2023-07-31T05:53:09;18.10;80.50
53268;DHT22;39156;51.176;6.738;2023-07-31T05:55:35;18.00;80.40
53268;DHT22;39156;51.176;6.738;2023-07-31T05:58:01;18.10;80.40
53268;DHT22;39156;51.176;6.738;2023-07-31T06:00:27;18.00;80.30
53268;DHT22;39156;51.176;6.738;2023-07-31T06:02:53;18.10;80.50
53268;DHT22;39156;51.176;6.738;2023-07-31T06:05:19;18.10;80.60
53268;DHT22;39156;51.176;6.738;2023-07-31T06:07:44;18.00;80.50
53268;DHT22;39156;51.176;6.738;2023-07-31T06:10:10;18.00;80.80
53268;DHT22;39156;51.176;6.738;2023-07-31T06:12:36;17.90;81.10
53268;DHT22;39156;51.176;6.738;2023-07-31T06:15:02;18.00;81.30
53268;DHT22;39156;51.176;6.738;2023-07-31T06:17:29;17.90;81.30
53268;DHT22;39156;51.176;6.738;2023-07-31T06:19:55;17.90;81.60
53268;DHT22;39156;51.176;6.738;2023-07-31T06:22:21;17.90;81.70
53268;DHT22;39156;51.176;6.738;2023-07-31T06:24:47;17.90;81.80
53268;DHT22;39156;51.176;6.738;2023-07-31T06:27:13;17.90;82.10
53268;DHT22;39156;51.176;6.738;2023-07-31T06:29:38;17.80;82.20
53268;DHT22;39156;51.176;6.738;2023-07-31T06:32:04;17.80;82.50
53268;DHT22;39156;51.176;6.738;2023-07-31T06:34:30;17.80;82.70
53268;DHT22;39156;51.176;6.738;2023-07-31T06:36:56;17.80;82.80
53268;DHT22;39156;51.176;6.738;2023-07-31T06:39:22;17.80;82.80
53268;DHT22;39156;51.176;6.738;2023-07-31T06:41:48;17.80;82.90
53268;DHT22;39156;51.176;6.738;2023-07-31T06:44:13;17.80;82.90
53268;DHT22;39156;51.176;6.738;2023-07-31T06:46:39;17.80;83.20
53268;DHT22;39156;51.176;6.738;2023-07-31T06:49:05;17.80;83.20
53268;DHT22;39156;51.176;6.738;2023-07-31T06:51:30;17.80;83.20
53268;DHT22;39156;51.176;6.738;2023-07-31T06:54:01;17.80;83.30
53268;DHT22;39156;51.176;6.738;2023-07-31T06:56:26;17.90;83.20
53268;DHT22;39156;51.176;6.738;2023-07-31T06:58:52;17.90;83.20
53268;DHT22;39156;51.176;6.738;2023-07-31T07:01:18;17.90;83.40
53268;DHT22;39156;51.176;6.738;2023-07-31T07:03:44;17.90;83.10
53268;DHT22;39156;51.176;6.738;2023-07-31T07:06:10;17.90;82.90
53268;DHT22;39156;51.176;6.738;2023-07-31T07:08:35;18.00;82.80
53268;DHT22;39156;51.176;6.738;2023-07-31T07:11:01;17.90;82.90
53268;DHT22;39156;51.176;6.738;2023-07-31T07:13:27;17.90;82.70
53268;DHT22;39156;51.176;6.738;2023-07-31T07:15:52;18.00;82.90
53268;DHT22;39156;51.176;6.738;2023-07-31T07:18:18;18.00;82.70
53268;DHT22;39156;51.176;6.738;2023-07-31T07:20:51;17.90;82.30
53268;DHT22;39156;51.176;6.738;2023-07-31T07:23:18;17.90;82.80
53268;DHT22;39156;51.176;6.738;2023-07-31T07:25:45;17.90;82.70
53268;DHT22;39156;51.176;6.738;2023-07-31T07:28:11;17.90;82.70
53268;DHT22;39156;51.176;6.738;2023-07-31T07:30:37;17.90;82.70
53268;DHT22;39156;51.176;6.738;2023-07-31T07:33:03;17.90;82.70
53268;DHT22;39156;51.176;6.738;2023-07-31T07:35:29;17.80;82.80
53268;DHT22;39156;51.176;6.738;2023-07-31T07:37:54;17.80;82.80
53268;DHT22;39156;51.176;6.738;2023-07-31T07:40:20;17.80;83.10
53268;DHT22;39156;51.176;6.738;2023-07-31T07:42:46;17.80;83.20
53268;DHT22;39156;51.176;6.738;2023-07-31T07:45:13;17.80;83.10
53268;DHT22;39156;51.176;6.738;2023-07-31T07:47:40;17.80;83.30
53268;DHT22;39156;51.176;6.738;2023-07-31T07:50:06;17.80;83.70
53268;DHT22;39156;51.176;6.738;2023-07-31T07:52:33;17.80;83.70
53268;DHT22;39156;51.176;6.738;2023-07-31T07:54:58;17.80;83.50
53268;DHT22;39156;51.176;6.738;2023-07-31T07:57:25;17.80;83.60
53268;DHT22;39156;51.176;6.738;2023-07-31T07:59:51;17.80;83.90
53268;DHT22;39156;51.176;6.738;2023-07-31T08:02:17;17.80;83.40
53268;DHT22;39156;51.176;6.738;2023-07-31T08:04:42;17.80;83.40
53268;DHT22;39156;51.176;6.738;2023-07-31T08:07:11;17.80;83.40
53268;DHT22;39156;51.176;6.738;2023-07-31T08:09:37;17.80;83.80
53268;DHT22;39156;51.176;6.738;2023-07-31T08:12:04;17.90;83.60
53268;DHT22;39156;51.176;6.738;2023-07-31T08:14:30;17.90;83.40
53268;DHT22;39156;51.176;6.738;2023-07-31T08:16:56;18.00;83.70
53268;DHT22;39156;51.176;6.738;2023-07-31T08:19:22;18.00;83.70
53268;DHT22;39156;51.176;6.738;2023-07-31T08:21:47;18.00;83.40
53268;DHT22;39156;51.176;6.738;2023-07-31T08:24:13;18.00;83.40
53268;DHT22;39156;51.176;6.738;2023-07-31T08:26:39;18.00;83.50
53268;DHT22;39156;51.176;6.738;2023-07-31T08:29:04;18.00;83.30
53268;DHT22;39156;51.176;6.738;2023-07-31T08:31:30;18.10;83.20
53268;DHT22;39156;51.176;6.738;2023-07-31T08:33:56;18.10;82.80
53268;DHT22;39156;51.176;6.738;2023-07-31T08:36:22;18.10;83.00
53268;DHT22;39156;51.176;6.738;2023-07-31T08:38:47;18.10;82.80
53268;DHT22;39156;51.176;6.738;2023-07-31T08:41:13;18.20;83.00
53268;DHT22;39156;51.176;6.738;2023-07-31T08:43:39;18.20;82.80
53268;DHT22;39156;51.176;6.738;2023-07-31T08:46:05;18.30;83.20
53268;DHT22;39156;51.176;6.738;2023-07-31T08:48:32;18.40;83.00
53268;DHT22;39156;51.176;6.738;2023-07-31T08:50:58;18.40;82.90
53268;DHT22;39156;51.176;6.738;2023-07-31T08:53:24;18.40;82.80
53268;DHT22;39156;51.176;6.738;2023-07-31T08:55:50;18.50;82.70
53268;DHT22;39156;51.176;6.738;2023-07-31T08:58:18;18.50;82.50
53268;DHT22;39156;51.176;6.738;2023-07-31T09:00:46;18.50;82.10
53268;DHT22;39156;51.176;6.738;2023-07-31T09:03:17;18.50;82.30
53268;DHT22;39156;51.176;6.738;2023-07-31T09:05:46;18.60;82.30
53268;DHT22;39156;51.176;6.738;2023-07-31T09:08:13;18.50;82.40
53268;DHT22;39156;51.176;6.738;2023-07-31T09:10:45;18.60;82.30
53268;DHT22;39156;51.176;6.738;2023-07-31T09:13:16;18.60;81.90
53268;DHT22;39156;51.176;6.738;2023-07-31T09:15:44;18.60;82.20
53268;DHT22;39156;51.176;6.738;2023-07-31T09:18:11;18.60;82.40
53268;DHT22;39156;51.176;6.738;2023-07-31T09:20:37;18.60;82.40
53268;DHT22;39156;51.176;6.738;2023-07-31T09:23:13;18.70;82.60
53268;DHT22;39156;51.176;6.738;2023-07-31T09:25:43;18.70;82.80
53268;DHT22;39156;51.176;6.738;2023-07-31T09:28:10;18.80;82.20
53268;DHT22;39156;51.176;6.738;2023-07-31T09:30:51;18.90;82.20
53268;DHT22;39156;51.176;6.738;2023-07-31T09:33:18;18.90;82.30
53268;DHT22;39156;51.176;6.738;2023-07-31T09:35:44;18.90;82.20
53268;DHT22;39156;51.176;6.738;2023-07-31T09:38:12;18.90;82.20
53268;DHT22;39156;51.176;6.738;2023-07-31T09:40:44;18.90;82.20
53268;DHT22;39156;51.176;6.738;2023-07-31T09:43:20;18.90;82.10
53268;DHT22;39156;51.176;6.738;2023-07-31T09:45:47;19.00;81.80
53268;DHT22;39156;51.176;6.738;2023-07-31T09:48:14;18.90;81.50
53268;DHT22;39156;51.176;6.738;2023-07-31T09:50:47;18.80;81.60
53268;DHT22;39156;51.176;6.738;2023-07-31T09:53:15;18.80;81.70
53268;DHT22;39156;51.176;6.738;2023-07-31T09:55:43;18.80;82.00
53268;DHT22;39156;51.176;6.738;2023-07-31T09:58:10;18.80;82.10
53268;DHT22;39156;51.176;6.738;2023-07-31T10:00:37;18.80;82.10
53268;DHT22;39156;51.176;6.738;2023-07-31T10:03:08;18.80;82.20
53268;DHT22;39156;51.176;6.738;2023-07-31T10:05:38;18.80;82.50
53268;DHT22;39156;51.176;6.738;2023-07-31T10:08:08;18.70;82.40
53268;DHT22;39156;51.176;6.738;2023-07-31T10:10:36;18.80;82.70
53268;DHT22;39156;51.176;6.738;2023-07-31T10:13:04;18.80;82.40
53268;DHT22;39156;51.176;6.738;2023-07-31T10:15:31;18.80;82.40
53268;DHT22;39156;51.176;6.738;2023-07-31T10:17:58;18.80;82.00
53268;DHT22;39156;51.176;6.738;2023-07-31T10:20:24;18.80;82.20
53268;DHT22;39156;51.176;6.738;2023-07-31T10:22:54;18.90;82.60
53268;DHT22;39156;51.176;6.738;2023-07-31T10:25:22;18.90;82.40
53268;DHT22;39156;51.176;6.738;2023-07-31T10:27:47;18.80;82.00
53268;DHT22;39156;51.176;6.738;2023-07-31T10:30:19;18.90;82.30
53268;DHT22;39156;51.176;6.738;2023-07-31T10:32:47;18.90;82.70
53268;DHT22;39156;51.176;6.738;2023-07-31T10:35:14;19.00;82.80
53268;DHT22;39156;51.176;6.738;2023-07-31T10:37:42;19.00;83.30
53268;DHT22;39156;51.176;6.738;2023-07-31T10:40:19;19.20;83.50
53268;DHT22;39156;51.176;6.738;2023-07-31T10:42:57;19.40;83.50
53268;DHT22;39156;51.176;6.738;2023-07-31T10:45:40;19.60;83.10
53268;DHT22;39156;51.176;6.738;2023-07-31T10:48:17;19.80;82.30
53268;DHT22;39156;51.176;6.738;2023-07-31T10:50:48;20.00;81.60
53268;DHT22;39156;51.176;6.738;2023-07-31T10:53:29;20.10;81.00
53268;DHT22;39156;51.176;6.738;2023-07-31T10:56:13;20.20;79.90
53268;DHT22;39156;51.176;6.738;2023-07-31T10:58:44;20.30;79.10
53268;DHT22;39156;51.176;6.738;2023-07-31T11:01:11;20.30;79.20
53268;DHT22;39156;51.176;6.738;2023-07-31T11:03:48;20.30;79.20
53268;DHT22;39156;51.176;6.738;2023-07-31T11:06:17;20.30;78.30
53268;DHT22;39156;51.176;6.738;2023-07-31T11:08:44;20.30;78.20
53268;DHT22;39156;51.176;6.738;2023-07-31T11:11:16;20.20;78.70
53268;DHT22;39156;51.176;6.738;2023-07-31T11:13:50;20.30;78.20
53268;DHT22;39156;51.176;6.738;2023-07-31T11:16:23;20.30;78.60
53268;DHT22;39156;51.176;6.738;2023-07-31T11:18:51;20.30;78.40
53268;DHT22;39156;51.176;6.738;2023-07-31T11:21:22;20.40;78.30
53268;DHT22;39156;51.176;6.738;2023-07-31T11:23:56;20.50;78.00
53268;DHT22;39156;51.176;6.738;2023-07-31T11:26:23;20.50;77.70
53268;DHT22;39156;51.176;6.738;2023-07-31T11:28:50;20.60;77.60
53268;DHT22;39156;51.176;6.738;2023-07-31T11:31:17;20.70;77.50
53268;DHT22;39156;51.176;6.738;2023-07-31T11:33:43;20.70;76.90
53268;DHT22;39156;51.176;6.738;2023-07-31T11:36:17;20.80;76.30
53268;DHT22;39156;51.176;6.738;2023-07-31T11:38:44;20.80;75.60
53268;DHT22;39156;51.176;6.738;2023-07-31T11:41:09;20.80;75.70
53268;DHT22;39156;51.176;6.738;2023-07-31T11:43:35;20.80;75.80
53268;DHT22;39156;51.176;6.738;2023-07-31T11:46:02;20.80;75.80
53268;DHT22;39156;51.176;6.738;2023-07-31T11:48:32;20.70;76.50
53268;DHT22;39156;51.176;6.738;2023-07-31T11:51:04;20.70;76.10
53268;DHT22;39156;51.176;6.738;2023-07-31T11:53:47;20.70;75.60
53268;DHT22;39156;51.176;6.738;2023-07-31T11:56:18;20.70;75.40
53268;DHT22;39156;51.176;6.738;2023-07-31T11:58:50;20.70;75.50
53268;DHT22;39156;51.176;6.738;2023-07-31T12:01:19;20.70;75.20
53268;DHT22;39156;51.176;6.738;2023-07-31T12:03:47;20.70;75.50
53268;DHT22;39156;51.176;6.738;2023-07-31T12:06:13;20.70;75.40
53268;DHT22;39156;51.176;6.738;2023-07-31T12:08:39;20.70;75.30
53268;DHT22;39156;51.176;6.738;2023-07-31T12:11:07;20.70;75.20
53268;DHT22;39156;51.176;6.738;2023-07-31T12:13:36;20.70;75.20
53268;DHT22;39156;51.176;6.738;2023-07-31T12:16:03;20.70;75.30
53268;DHT22;39156;51.176;6.738;2023-07-31T12:18:33;20.60;75.70
53268;DHT22;39156;51.176;6.738;2023-07-31T12:21:04;20.60;75.80
53268;DHT22;39156;51.176;6.738;2023-07-31T12:23:32;20.60;76.10
53268;DHT22;39156;51.176;6.738;2023-07-31T12:26:13;20.70;76.00
53268;DHT22;39156;51.176;6.738;2023-07-31T12:28:47;20.70;76.00
53268;DHT22;39156;51.176;6.738;2023-07-31T12:31:21;20.70;76.20
53268;DHT22;39156;51.176;6.738;2023-07-31T12:33:49;20.80;76.40
53268;DHT22;39156;51.176;6.738;2023-07-31T12:36:17;20.80;76.40
53268;DHT22;39156;51.176;6.738;2023-07-31T12:38:44;20.90;76.10
53268;DHT22;39156;51.176;6.738;2023-07-31T12:41:11;20.90;76.10
53268;DHT22;39156;51.176;6.738;2023-07-31T12:43:39;20.90;76.60
53268;DHT22;39156;51.176;6.738;2023-07-31T12:46:06;21.00;76.80
53268;DHT22;39156;51.176;6.738;2023-07-31T12:48:36;21.10;76.60
53268;DHT22;39156;51.176;6.738;2023-07-31T12:51:02;21.20;76.40
53268;DHT22;39156;51.176;6.738;2023-07-31T12:53:29;21.20;75.80
53268;DHT22;39156;51.176;6.738;2023-07-31T12:55:55;21.30;75.20
53268;DHT22;39156;51.176;6.738;2023-07-31T12:58:21;21.30;74.90
53268;DHT22;39156;51.176;6.738;2023-07-31T13:00:47;21.30;75.00
53268;DHT22;39156;51.176;6.738;2023-07-31T13:03:13;21.40;75.40
53268;DHT22;39156;51.176;6.738;2023-07-31T13:05:39;21.40;75.20
53268;DHT22;39156;51.176;6.738;2023-07-31T13:08:04;21.50;75.00
53268;DHT22;39156;51.176;6.738;2023-07-31T13:10:30;21.50;75.10
53268;DHT22;39156;51.176;6.738;2023-07-31T13:12:56;21.60;74.60
53268;DHT22;39156;51.176;6.738;2023-07-31T13:15:22;21.70;74.20
53268;DHT22;39156;51.176;6.738;2023-07-31T13:17:48;21.70;73.80
53268;DHT22;39156;51.176;6.738;2023-07-31T13:20:14;21.70;73.60
53268;DHT22;39156;51.176;6.738;2023-07-31T13:22:40;21.70;73.50
53268;DHT22;39156;51.176;6.738;2023-07-31T13:25:06;21.70;73.20
53268;DHT22;39156;51.176;6.738;2023-07-31T13:27:32;21.70;73.30
53268;DHT22;39156;51.176;6.738;2023-07-31T13:29:59;21.70;73.90
53268;DHT22;39156;51.176;6.738;2023-07-31T13:32:25;21.70;73.30
53268;DHT22;39156;51.176;6.738;2023-07-31T13:34:51;21.80;73.20
53268;DHT22;39156;51.176;6.738;2023-07-31T13:37:17;21.80;73.00
53268;DHT22;39156;51.176;6.738;2023-07-31T13:39:43;21.90;72.80
53268;DHT22;39156;51.176;6.738;2023-07-31T13:42:10;21.90;72.40
53268;DHT22;39156;51.176;6.738;2023-07-31T13:44:38;22.10;72.50
53268;DHT22;39156;51.176;6.738;2023-07-31T13:47:04;22.10;71.90
53268;DHT22;39156;51.176;6.738;2023-07-31T13:49:30;22.20;72.20
53268;DHT22;39156;51.176;6.738;2023-07-31T13:51:56;22.20;72.40
53268;DHT22;39156;51.176;6.738;2023-07-31T13:54:23;22.30;72.20
53268;DHT22;39156;51.176;6.738;2023-07-31T13:56:49;22.40;71.50
53268;DHT22;39156;51.176;6.738;2023-07-31T13:59:15;22.40;71.40
53268;DHT22;39156;51.176;6.738;2023-07-31T14:01:42;22.50;71.60
53268;DHT22;39156;51.176;6.738;2023-07-31T14:04:08;22.40;71.10
53268;DHT22;39156;51.176;6.738;2023-07-31T14:06:34;22.50;71.40
53268;DHT22;39156;51.176;6.738;2023-07-31T14:08:59;22.50;70.70
53268;DHT22;39156;51.176;6.738;2023-07-31T14:11:26;22.40;70.50
53268;DHT22;39156;51.176;6.738;2023-07-31T14:13:52;22.30;70.10
53268;DHT22;39156;51.176;6.738;2023-07-31T14:16:18;22.20;70.00
53268;DHT22;39156;51.176;6.738;2023-07-31T14:18:43;22.10;70.10
53268;DHT22;39156;51.176;6.738;2023-07-31T14:21:11;22.00;70.00
53268;DHT22;39156;51.176;6.738;2023-07-31T14:23:37;21.80;70.30
53268;DHT22;39156;51.176;6.738;2023-07-31T14:26:03;21.80;70.70
53268;DHT22;39156;51.176;6.738;2023-07-31T14:28:28;21.70;70.50
53268;DHT22;39156;51.176;6.738;2023-07-31T14:30:54;21.50;70.70
53268;DHT22;39156;51.176;6.738;2023-07-31T14:33:20;21.40;71.50
53268;DHT22;39156;51.176;6.738;2023-07-31T14:35:45;21.30;71.10
53268;DHT22;39156;51.176;6.738;2023-07-31T14:38:11;21.30;71.20
53268;DHT22;39156;51.176;6.738;2023-07-31T14:40:37;21.20;71.30
53268;DHT22;39156;51.176;6.738;2023-07-31T14:43:04;21.00;71.60
53268;DHT22;39156;51.176;6.738;2023-07-31T14:45:29;21.10;71.70
53268;DHT22;39156;51.176;6.738;2023-07-31T14:47:55;21.10;71.90
53268;DHT22;39156;51.176;6.738;2023-07-31T14:50:21;21.10;71.90
53268;DHT22;39156;51.176;6.738;2023-07-31T14:52:48;21.10;71.80
53268;DHT22;39156;51.176;6.738;2023-07-31T14:55:14;21.20;71.80
53268;DHT22;39156;51.176;6.738;2023-07-31T14:57:39;21.20;71.80
53268;DHT22;39156;51.176;6.738;2023-07-31T15:00:07;21.30;71.80
53268;DHT22;39156;51.176;6.738;2023-07-31T15:02:34;21.40;71.60
53268;DHT22;39156;51.176;6.738;2023-07-31T15:05:01;21.40;71.30
53268;DHT22;39156;51.176;6.738;2023-07-31T15:07:26;21.40;71.00
53268;DHT22;39156;51.176;6.738;2023-07-31T15:09:52;21.30;70.90
53268;DHT22;39156;51.176;6.738;2023-07-31T15:12:18;21.30;70.70
53268;DHT22;39156;51.176;6.738;2023-07-31T15:14:43;21.30;70.80
53268;DHT22;39156;51.176;6.738;2023-07-31T15:17:09;21.30;71.10
53268;DHT22;39156;51.176;6.738;2023-07-31T15:19:35;21.20;71.10
53268;DHT22;39156;51.176;6.738;2023-07-31T15:22:02;21.30;71.20
53268;DHT22;39156;51.176;6.738;2023-07-31T15:24:29;21.20;70.90
53268;DHT22;39156;51.176;6.738;2023-07-31T15:26:54;21.20;71.00
53268;DHT22;39156;51.176;6.738;2023-07-31T15:29:21;21.20;71.00
53268;DHT22;39156;51.176;6.738;2023-07-31T15:31:47;21.10;71.00
53268;DHT22;39156;51.176;6.738;2023-07-31T15:34:14;21.10;71.00